Time;durP1;ratioP1;P1;durP2;ratioP2;P2;SDS_P1;SDS_P2;PMS_P1;PMS_P2;Temp;Humidity;BMP_temperature;BMP_pressure;BME280_temperature;BME280_humidity;BME280_pressure;Samples;Min_cycle;Max_cycle;Signal;HPM_P1;HPM_P2
2021/09/09 00:01:56;;;;;;;;;16.00;14.75;;;;;27.42;52.71;100683.63;5060902;28;50991;-55
2021/09/09 00:04:22;;;;;;;;;17.75;13.75;;;;;27.41;52.78;100676.38;5062832;28;51287;-55
2021/09/09 00:06:47;;;;;;;;;17.75;16.00;;;;;27.40;53.03;100674.69;5074533;28;50979;-55
2021/09/09 00:09:12;;;;;;;;;18.00;17.50;;;;;27.41;53.01;100689.44;5066421;28;51015;-55
2021/09/09 00:11:38;;;;;;;;;16.50;15.75;;;;;27.40;53.09;100688.59;5076614;28;51001;-54
2021/09/09 00:14:03;;;;;;;;;16.25;14.25;;;;;27.39;53.72;100681.38;5066196;28;50904;-55
2021/09/09 00:16:29;;;;;;;;;20.25;15.25;;;;;27.39;53.71;100680.53;5076860;28;51194;-55
2021/09/09 00:18:54;;;;;;;;;19.00;14.75;;;;;27.38;53.24;100685.25;5075547;28;51099;-55
2021/09/09 00:21:19;;;;;;;;;16.00;14.75;;;;;27.37;53.41;100677.19;5070749;28;52669;-55
2021/09/09 00:23:45;;;;;;;;;19.00;16.75;;;;;27.36;53.76;100676.34;5066309;28;51070;-54
2021/09/09 00:26:10;;;;;;;;;18.00;15.25;;;;;27.34;53.99;100670.22;5062689;28;51173;-55
2021/09/09 00:28:35;;;;;;;;;20.00;18.00;;;;;27.34;53.37;100661.88;5064158;28;51225;-55
2021/09/09 00:31:01;;;;;;;;;17.75;16.50;;;;;27.33;53.53;100654.66;5073673;28;51765;-55
2021/09/09 00:33:26;;;;;;;;;18.00;15.75;;;;;27.33;54.09;100655.50;5069130;28;51050;-55
2021/09/09 00:35:51;;;;;;;;;20.75;18.50;;;;;27.31;53.64;100646.59;5067124;28;51653;-54
2021/09/09 00:38:17;;;;;;;;;17.75;16.50;;;;;27.33;54.22;100649.94;5057238;28;51981;-56
2021/09/09 00:40:42;;;;;;;;;17.50;16.50;;;;;27.33;53.78;100654.66;5057029;28;51705;-55
2021/09/09 00:43:08;;;;;;;;;19.00;16.25;;;;;27.31;53.75;100651.31;5067354;28;51412;-55
2021/09/09 00:45:33;;;;;;;;;15.75;15.00;;;;;27.30;53.65;100649.63;5081479;27;51170;-55
2021/09/09 00:47:58;;;;;;;;;19.50;17.00;;;;;27.29;54.28;100645.16;5092032;27;51382;-56
2021/09/09 00:50:24;;;;;;;;;16.75;15.00;;;;;27.29;54.34;100642.38;5093686;27;51760;-55
2021/09/09 00:52:51;;;;;;;;;15.50;15.50;;;;;27.27;53.69;100644.59;5072717;27;51176;-55
2021/09/09 00:55:18;;;;;;;;;14.50;14.50;;;;;27.27;53.75;100655.72;5084704;27;51070;-55
2021/09/09 00:57:47;;;;;;;;;18.25;16.00;;;;;27.27;54.45;100652.97;5085418;27;51124;-54
2021/09/09 01:00:14;;;;;;;;;17.00;14.75;;;;;27.26;54.14;100660.47;5084972;27;51727;-56
2021/09/09 01:02:40;;;;;;;;;17.00;15.25;;;;;27.25;54.33;100667.13;5085606;27;51123;-55
2021/09/09 01:05:06;;;;;;;;;13.25;13.00;;;;;27.25;54.30;100664.34;5095532;27;50992;-55
2021/09/09 01:07:32;;;;;;;;;15.25;12.75;;;;;27.24;53.88;100673.81;5096589;27;51049;-57
2021/09/09 01:09:59;;;;;;;;;16.50;12.50;;;;;27.24;54.40;100661.84;5096076;27;51805;-55
2021/09/09 01:12:25;;;;;;;;;16.25;13.00;;;;;27.22;54.38;100667.69;5088492;27;51461;-55
2021/09/09 01:14:50;;;;;;;;;17.50;14.00;;;;;27.22;53.86;100664.91;5094455;27;51067;-54
2021/09/09 01:17:16;;;;;;;;;14.50;12.50;;;;;27.21;54.37;100668.81;5092558;27;51046;-55
2021/09/09 01:19:41;;;;;;;;;14.25;14.25;;;;;27.21;54.00;100662.41;5095375;27;51644;-54
2021/09/09 01:22:06;;;;;;;;;11.25;11.25;;;;;27.20;53.99;100666.25;5092280;27;51125;-55
2021/09/09 01:24:32;;;;;;;;;17.75;15.00;;;;;27.20;53.90;100675.47;5087939;27;51275;-55
2021/09/09 01:27:03;;;;;;;;;16.25;13.75;;;;;27.19;54.72;100670.16;5086842;27;51149;-55
2021/09/09 01:29:34;;;;;;;;;15.75;12.00;;;;;27.18;53.93;100669.31;5076247;27;52082;-56
2021/09/09 01:32:00;;;;;;;;;15.25;15.25;;;;;27.19;53.81;100664.59;5091714;27;51096;-55
2021/09/09 01:34:26;;;;;;;;;14.50;13.25;;;;;27.18;54.32;100668.47;5083032;27;50937;-55
2021/09/09 01:36:52;;;;;;;;;16.50;14.50;;;;;27.18;53.96;100668.47;5092813;27;50945;-56
2021/09/09 01:39:18;;;;;;;;;14.50;12.50;;;;;27.16;54.36;100674.31;5095234;27;51933;-55
2021/09/09 01:41:43;;;;;;;;;14.50;13.75;;;;;27.15;54.52;100672.66;5095657;27;51146;-56
2021/09/09 01:44:09;;;;;;;;;12.00;12.00;;;;;27.16;54.16;100676.28;5095816;27;51218;-55
2021/09/09 01:46:35;;;;;;;;;16.00;13.25;;;;;27.16;54.37;100682.66;5077570;27;51009;-55
2021/09/09 01:49:00;;;;;;;;;18.25;12.50;;;;;27.15;54.68;100685.72;5068965;28;51196;-55
2021/09/09 01:51:26;;;;;;;;;15.75;14.50;;;;;27.13;54.33;100683.22;5068818;28;51196;-56
2021/09/09 01:53:55;;;;;;;;;13.75;11.75;;;;;27.14;54.08;100684.88;5065627;28;51166;-56
2021/09/09 01:56:21;;;;;;;;;15.00;14.00;;;;;27.13;54.75;100693.50;5055607;28;51194;-55
2021/09/09 01:58:47;;;;;;;;;14.75;14.50;;;;;27.13;54.17;100694.34;5051557;28;52399;-55
2021/09/09 02:01:12;;;;;;;;;14.00;14.00;;;;;27.13;53.96;100694.34;5064061;28;51081;-56
2021/09/09 02:03:38;;;;;;;;;18.50;16.50;;;;;27.13;54.56;100693.50;5062038;28;51005;-55
2021/09/09 02:06:03;;;;;;;;;14.50;13.25;;;;;27.12;54.46;100695.44;5075439;28;50983;-58
2021/09/09 02:08:29;;;;;;;;;14.75;13.50;;;;;27.12;54.04;100689.06;5075108;28;51959;-57
2021/09/09 02:10:54;;;;;;;;;14.25;14.25;;;;;27.12;53.97;100683.50;5069804;28;50907;-57
2021/09/09 02:13:20;;;;;;;;;16.00;16.00;;;;;27.10;54.16;100694.06;5061618;28;51900;-58
2021/09/09 02:15:45;;;;;;;;;16.00;16.00;;;;;27.09;53.91;100684.84;5065981;28;51575;-57
2021/09/09 02:18:11;;;;;;;;;18.25;14.00;;;;;27.08;54.22;100691.53;5065423;28;51280;-57
2021/09/09 02:20:37;;;;;;;;;18.75;16.75;;;;;27.07;54.37;100695.41;5056545;28;51240;-55
2021/09/09 02:23:02;;;;;;;;;17.75;16.00;;;;;27.07;54.50;100689.84;5072684;28;51523;-56
2021/09/09 02:25:28;;;;;;;;;15.00;14.50;;;;;27.08;54.38;100693.47;5063476;28;51017;-55
2021/09/09 02:27:53;;;;;;;;;16.75;16.75;;;;;27.06;54.12;100688.19;5071565;28;51881;-56
2021/09/09 02:30:18;;;;;;;;;23.00;15.50;;;;;27.07;54.52;100697.34;5074784;28;50997;-56
2021/09/09 02:32:44;;;;;;;;;18.25;15.00;;;;;27.05;54.00;100697.63;5074990;28;51587;-55
2021/09/09 02:35:09;;;;;;;;;19.75;15.50;;;;;27.04;54.51;100694.00;5069914;28;51038;-55
2021/09/09 02:37:35;;;;;;;;;16.75;15.50;;;;;27.06;54.54;100690.13;5056586;28;52196;-56
2021/09/09 02:40:00;;;;;;;;;15.00;15.00;;;;;27.04;54.39;100682.88;5074899;28;50974;-56
2021/09/09 02:42:26;;;;;;;;;17.25;16.25;;;;;27.04;54.46;100690.41;5073323;28;51754;-56
2021/09/09 02:44:51;;;;;;;;;17.50;17.00;;;;;27.03;54.40;100684.00;5067684;28;50978;-56
2021/09/09 02:47:17;;;;;;;;;14.50;14.00;;;;;27.04;53.91;100693.19;5087673;27;51958;-57
2021/09/09 02:49:42;;;;;;;;;20.25;17.25;;;;;27.02;54.39;100682.31;5077796;27;50942;-58
2021/09/09 02:52:07;;;;;;;;;17.75;15.25;;;;;27.02;54.52;100684.28;5067441;28;51441;-56
2021/09/09 02:54:33;;;;;;;;;18.00;15.25;;;;;27.02;54.52;100689.84;5092659;27;51155;-57
2021/09/09 02:56:58;;;;;;;;;18.25;15.75;;;;;27.01;54.07;100686.19;5094613;27;51848;-56
2021/09/09 02:59:23;;;;;;;;;18.00;18.00;;;;;27.02;54.26;100692.63;5093396;27;51098;-57
2021/09/09 03:01:49;;;;;;;;;19.75;19.00;;;;;27.01;54.82;100700.09;5094889;27;51699;-56
2021/09/09 03:04:14;;;;;;;;;16.75;15.50;;;;;27.01;54.72;100694.53;5090498;27;51090;-56
2021/09/09 03:06:39;;;;;;;;;18.25;15.75;;;;;27.00;54.58;100689.25;5092417;27;52095;-57
2021/09/09 03:09:05;;;;;;;;;16.50;13.25;;;;;26.99;54.78;100687.53;5086124;27;51289;-57
2021/09/09 03:11:30;;;;;;;;;19.50;17.25;;;;;26.98;54.78;100674.75;5082272;27;51261;-56
2021/09/09 03:13:55;;;;;;;;;17.25;15.75;;;;;26.96;54.75;100672.25;5096976;27;51004;-57
2021/09/09 03:16:21;;;;;;;;;16.00;14.75;;;;;26.97;54.52;100679.47;5096661;27;51110;-56
2021/09/09 03:18:46;;;;;;;;;20.75;17.50;;;;;26.97;54.72;100684.19;5079765;27;51293;-57
2021/09/09 03:21:11;;;;;;;;;17.00;14.25;;;;;26.96;54.82;100685.31;5094125;27;51250;-56
2021/09/09 03:23:37;;;;;;;;;21.50;19.75;;;;;26.95;54.03;100678.91;5081561;27;51208;-56
2021/09/09 03:26:02;;;;;;;;;16.00;16.00;;;;;26.95;54.58;100675.31;5094654;27;51078;-55
2021/09/09 03:28:28;;;;;;;;;17.00;15.50;;;;;26.95;54.18;100681.69;5097830;27;51003;-55
2021/09/09 03:30:53;;;;;;;;;15.25;15.25;;;;;26.95;54.57;100675.31;5098257;27;51127;-56
2021/09/09 03:33:18;;;;;;;;;20.75;16.50;;;;;26.95;54.69;100678.09;5082949;27;51024;-57
2021/09/09 03:35:44;;;;;;;;;17.25;15.75;;;;;26.94;55.00;100668.91;5087395;27;51691;-57
2021/09/09 03:38:09;;;;;;;;;18.00;18.00;;;;;26.94;54.22;100668.91;5098093;27;51043;-57
2021/09/09 03:40:35;;;;;;;;;14.25;13.25;;;;;26.94;54.39;100668.06;5096366;27;51665;-58
2021/09/09 03:43:01;;;;;;;;;17.50;16.00;;;;;26.94;54.33;100665.28;5095623;27;51259;-57
2021/09/09 03:45:26;;;;;;;;;14.75;13.50;;;;;26.92;54.39;100662.78;5089070;27;51807;-57
2021/09/09 03:47:52;;;;;;;;;15.00;13.75;;;;;26.92;54.79;100664.72;5095711;27;51107;-56
2021/09/09 03:50:18;;;;;;;;;15.75;15.50;;;;;26.92;54.86;100661.94;5080850;27;51134;-58
2021/09/09 03:52:43;;;;;;;;;21.50;17.50;;;;;26.91;54.78;100665.84;5085037;27;50971;-56
2021/09/09 03:55:09;;;;;;;;;18.75;15.25;;;;;26.90;54.26;100656.66;5088741;27;51160;-57
2021/09/09 03:57:34;;;;;;;;;19.75;17.50;;;;;26.91;54.83;100657.50;5095448;27;51825;-57
2021/09/09 04:00:00;;;;;;;;;15.50;15.50;;;;;26.90;54.88;100662.22;5072401;27;51198;-56
2021/09/09 04:02:25;;;;;;;;;17.25;16.00;;;;;26.89;54.63;100668.91;5089547;27;51081;-57
2021/09/09 04:04:50;;;;;;;;;14.75;14.75;;;;;26.89;54.83;100666.13;5083911;27;51072;-58
2021/09/09 04:07:15;;;;;;;;;17.50;17.00;;;;;26.88;54.54;100664.41;5096115;27;51143;-57
2021/09/09 04:09:41;;;;;;;;;15.25;13.00;;;;;26.89;55.01;100676.41;5097899;27;51213;-57
2021/09/09 04:12:06;;;;;;;;;22.25;19.25;;;;;26.89;54.81;100670.84;5088723;27;51102;-57
2021/09/09 04:14:32;;;;;;;;;16.00;15.00;;;;;26.88;54.86;100666.34;5085611;27;51747;-57
2021/09/09 04:16:58;;;;;;;;;19.25;18.00;;;;;26.87;55.15;100664.69;5097107;27;51413;-56
2021/09/09 04:19:23;;;;;;;;;19.00;17.75;;;;;26.87;55.18;100656.34;5088457;27;51149;-57
2021/09/09 04:21:52;;;;;;;;;18.75;17.75;;;;;26.86;55.11;100658.28;5097159;27;51051;-55
2021/09/09 04:24:20;;;;;;;;;18.75;16.75;;;;;26.86;54.67;100652.72;5090929;27;52130;-55
2021/09/09 04:26:46;;;;;;;;;20.25;18.25;;;;;26.86;54.59;100651.91;5086240;27;51145;-55
2021/09/09 04:29:12;;;;;;;;;19.00;17.25;;;;;26.84;55.00;100649.41;5085404;27;51056;-56
2021/09/09 04:31:37;;;;;;;;;16.00;15.50;;;;;26.84;54.68;100652.19;5092481;27;51092;-56
2021/09/09 04:34:02;;;;;;;;;19.25;18.75;;;;;26.84;55.32;100643.00;5093782;27;51169;-57
2021/09/09 04:36:28;;;;;;;;;20.00;18.25;;;;;26.84;55.03;100649.41;5077479;27;51147;-56
2021/09/09 04:38:53;;;;;;;;;17.50;17.25;;;;;26.84;54.98;100634.66;5077815;27;51102;-55
2021/09/09 04:41:19;;;;;;;;;17.25;16.75;;;;;26.83;55.20;100642.16;5097292;27;51116;-56
2021/09/09 04:43:45;;;;;;;;;20.00;18.50;;;;;26.82;54.50;100628.56;5081445;27;51990;-59
2021/09/09 04:46:10;;;;;;;;;22.00;18.50;;;;;26.82;55.22;100626.59;5086752;27;50982;-55
2021/09/09 04:48:36;;;;;;;;;19.75;18.25;;;;;26.81;54.53;100630.50;5089155;27;51520;-55
2021/09/09 04:51:01;;;;;;;;;20.00;18.00;;;;;26.81;55.09;100630.50;5091375;27;51207;-56
2021/09/09 04:53:26;;;;;;;;;17.00;17.00;;;;;26.81;54.69;100627.72;5077264;27;51985;-56
2021/09/09 04:55:52;;;;;;;;;21.25;18.75;;;;;26.81;54.67;100641.59;5086654;27;51284;-56
2021/09/09 04:58:17;;;;;;;;;19.00;17.50;;;;;26.80;55.02;100631.59;5078947;27;50957;-55
2021/09/09 05:00:42;;;;;;;;;16.25;15.75;;;;;26.80;54.83;100639.09;5094660;27;51211;-55
2021/09/09 05:03:08;;;;;;;;;19.00;17.25;;;;;26.80;55.05;100644.66;5095056;27;51775;-55
2021/09/09 05:05:33;;;;;;;;;21.25;20.25;;;;;26.79;55.00;100643.00;5078461;27;51127;-55
2021/09/09 05:07:59;;;;;;;;;18.50;17.25;;;;;26.80;54.61;100636.31;5078187;27;51251;-56
2021/09/09 05:10:24;;;;;;;;;23.50;19.25;;;;;26.80;54.96;100637.16;5084142;27;51377;-56
2021/09/09 05:12:50;;;;;;;;;18.00;17.50;;;;;26.79;54.52;100638.28;5092200;27;51773;-55
2021/09/09 05:15:15;;;;;;;;;19.75;17.75;;;;;26.79;54.71;100637.44;5085348;27;51373;-55
2021/09/09 05:17:41;;;;;;;;;16.75;16.75;;;;;26.79;54.72;100640.22;5089600;27;51165;-57
2021/09/09 05:20:07;;;;;;;;;19.00;16.25;;;;;26.80;54.55;100644.66;5090607;27;51235;-54
2021/09/09 05:22:33;;;;;;;;;25.50;20.25;;;;;26.79;55.14;100640.22;5092288;27;52707;-55
2021/09/09 05:25:00;;;;;;;;;20.50;18.25;;;;;26.78;54.57;100644.91;5076531;27;51369;-54
2021/09/09 05:27:25;;;;;;;;;21.25;18.25;;;;;26.76;54.79;100653.50;5084891;27;51048;-55
2021/09/09 05:29:51;;;;;;;;;25.50;20.00;;;;;26.74;54.98;100650.19;5075612;27;51124;-55
2021/09/09 05:32:16;;;;;;;;;20.75;18.25;;;;;26.73;54.88;100645.72;5084604;27;51154;-55
2021/09/09 05:34:41;;;;;;;;;28.00;23.00;;;;;26.72;54.65;100648.78;5084800;27;51289;-54
2021/09/09 05:37:07;;;;;;;;;26.25;22.50;;;;;26.71;54.57;100641.56;5071404;27;51324;-53
2021/09/09 05:39:32;;;;;;;;;22.50;22.50;;;;;26.70;54.56;100654.59;5092933;27;51230;-55
2021/09/09 05:41:57;;;;;;;;;27.50;22.75;;;;;26.70;54.69;100656.56;5088066;27;51222;-54
2021/09/09 05:44:23;;;;;;;;;26.25;21.50;;;;;26.70;54.88;100654.59;5085281;27;51000;-55
2021/09/09 05:46:48;;;;;;;;;21.50;18.50;;;;;26.69;54.88;100660.44;5086016;27;51037;-56
2021/09/09 05:49:14;;;;;;;;;21.75;20.75;;;;;26.68;55.02;100670.72;5094632;27;51405;-53
2021/09/09 05:51:39;;;;;;;;;22.25;21.75;;;;;26.68;54.76;100672.66;5095389;27;51036;-55
2021/09/09 05:54:04;;;;;;;;;24.75;21.75;;;;;26.69;54.49;100682.66;5082924;27;51437;-54
2021/09/09 05:56:30;;;;;;;;;22.50;20.00;;;;;26.68;54.82;100683.78;5093484;27;51630;-55
2021/09/09 05:58:55;;;;;;;;;27.50;23.00;;;;;26.68;54.45;100684.59;5094991;27;51309;-56
2021/09/09 06:01:21;;;;;;;;;23.25;20.00;;;;;26.68;54.31;100694.88;5094161;27;51158;-55
2021/09/09 06:03:47;;;;;;;;;22.50;18.75;;;;;26.68;54.61;100692.09;5086990;27;51155;-55
2021/09/09 06:06:15;;;;;;;;;28.00;19.75;;;;;26.69;54.32;100697.41;5089039;27;51146;-56
2021/09/09 06:08:43;;;;;;;;;25.00;21.50;;;;;26.68;54.75;100692.94;5084068;27;51039;-56
2021/09/09 06:11:09;;;;;;;;;21.00;19.75;;;;;26.68;54.38;100694.88;5089861;27;52628;-56
2021/09/09 06:13:34;;;;;;;;;21.75;19.00;;;;;26.67;54.47;100702.34;5087935;27;51606;-54
2021/09/09 06:16:00;;;;;;;;;20.75;19.75;;;;;26.66;55.03;100708.19;5085580;27;51088;-54
2021/09/09 06:18:25;;;;;;;;;21.50;21.00;;;;;26.66;54.92;100706.25;5092365;27;51376;-55
2021/09/09 06:20:50;;;;;;;;;22.75;20.75;;;;;26.66;54.87;100699.84;5092882;27;52569;-56
2021/09/09 06:23:16;;;;;;;;;24.50;21.00;;;;;26.64;54.77;100702.06;5095055;27;51308;-58
2021/09/09 06:25:41;;;;;;;;;23.00;22.75;;;;;26.65;54.68;100703.72;5092932;27;51119;-54
2021/09/09 06:28:07;;;;;;;;;21.50;20.50;;;;;26.65;54.51;100710.13;5089482;27;51495;-55
2021/09/09 06:30:32;;;;;;;;;21.50;18.75;;;;;26.66;54.53;100713.75;5093865;27;51867;-54
2021/09/09 06:32:57;;;;;;;;;20.25;17.25;;;;;26.68;54.66;100712.41;5091966;27;51166;-57
2021/09/09 06:35:23;;;;;;;;;19.00;19.00;;;;;26.66;54.95;100711.78;5091648;27;51023;-55
2021/09/09 06:37:48;;;;;;;;;18.25;17.25;;;;;26.67;54.50;100713.47;5087748;27;51073;-55
2021/09/09 06:40:14;;;;;;;;;23.25;19.75;;;;;26.68;54.50;100714.34;5075517;27;51023;-56
2021/09/09 06:42:40;;;;;;;;;19.25;18.00;;;;;26.69;54.83;100722.41;5098798;27;51040;-55
2021/09/09 06:45:09;;;;;;;;;23.25;20.75;;;;;26.71;54.72;100724.91;5096680;27;51110;-56
2021/09/09 06:47:34;;;;;;;;;26.00;20.25;;;;;26.70;54.57;100740.75;5079155;28;51066;-55
2021/09/09 06:50:00;;;;;;;;;26.25;21.00;;;;;26.71;54.92;100736.03;5070055;28;51097;-55
2021/09/09 06:52:25;;;;;;;;;25.50;23.50;;;;;26.71;54.33;100736.03;5040114;28;51045;-58
2021/09/09 06:54:51;;;;;;;;;22.25;18.25;;;;;26.71;54.95;100733.25;5058461;28;51015;-52
2021/09/09 06:57:16;;;;;;;;;26.75;22.25;;;;;26.71;54.48;100744.34;5058351;28;51068;-51
2021/09/09 06:59:42;;;;;;;;;23.25;21.50;;;;;26.71;54.91;100734.06;5065117;28;51667;-53
2021/09/09 07:02:07;;;;;;;;;23.75;22.75;;;;;26.71;54.99;100725.75;5078324;28;51132;-52
2021/09/09 07:04:32;;;;;;;;;31.25;25.00;;;;;26.72;54.95;100732.13;5078541;28;51097;-51
2021/09/09 07:06:58;;;;;;;;;28.50;28.00;;;;;26.73;54.34;100729.09;5078888;28;51206;-48
2021/09/09 07:09:23;;;;;;;;;29.75;26.75;;;;;26.73;54.71;100729.09;5078366;27;51002;-48
2021/09/09 07:11:48;;;;;;;;;26.75;24.50;;;;;26.74;54.14;100738.25;5078337;28;51194;-49
2021/09/09 07:14:14;;;;;;;;;22.25;22.25;;;;;26.75;54.08;100737.97;5078696;28;51169;-50
2021/09/09 07:16:39;;;;;;;;;23.00;22.50;;;;;26.76;54.65;100733.25;5078845;28;51032;-50
2021/09/09 07:19:04;;;;;;;;;20.75;19.75;;;;;26.76;53.94;100734.09;5077918;27;51893;-51
2021/09/09 07:21:30;;;;;;;;;23.75;23.00;;;;;26.76;54.48;100713.81;5078596;28;51070;-51
2021/09/09 07:23:55;;;;;;;;;28.25;25.00;;;;;26.76;54.42;100722.97;5078760;28;51070;-52
2021/09/09 07:26:20;;;;;;;;;20.00;19.75;;;;;26.76;53.86;100725.75;5078459;28;51224;-52
2021/09/09 07:28:46;;;;;;;;;26.75;23.50;;;;;26.78;53.66;100728.28;5078095;28;51258;-52
2021/09/09 07:31:11;;;;;;;;;20.50;20.50;;;;;26.77;54.24;100721.88;5078457;28;50982;-52
2021/09/09 07:33:38;;;;;;;;;21.00;20.25;;;;;26.79;53.56;100731.91;5059895;28;51139;-51
2021/09/09 07:36:06;;;;;;;;;22.50;18.25;;;;;26.78;53.90;100731.03;5078670;28;51398;-50
2021/09/09 07:38:32;;;;;;;;;20.50;19.25;;;;;26.80;53.51;100739.97;5077760;28;52220;-51
2021/09/09 07:40:57;;;;;;;;;17.75;17.00;;;;;26.79;53.52;100738.31;5078235;28;51037;-49
2021/09/09 07:43:23;;;;;;;;;23.50;20.75;;;;;26.81;53.36;100736.09;5078008;28;51097;-48
2021/09/09 07:45:48;;;;;;;;;23.25;20.75;;;;;26.80;53.75;100734.41;5078080;27;51035;-54
2021/09/09 07:48:13;;;;;;;;;19.00;18.75;;;;;26.81;53.59;100729.69;5077717;28;51957;-51
2021/09/09 07:50:39;;;;;;;;;19.50;16.00;;;;;26.81;53.76;100733.31;5078060;28;51060;-50
2021/09/09 07:53:04;;;;;;;;;23.00;20.50;;;;;26.79;53.33;100729.97;5076967;28;51599;-52
2021/09/09 07:55:29;;;;;;;;;22.00;17.50;;;;;26.80;53.28;100728.88;5078293;28;51072;-52
2021/09/09 07:57:55;;;;;;;;;14.75;14.75;;;;;26.81;53.48;100735.25;5077364;28;51757;-52
2021/09/09 08:00:20;;;;;;;;;16.50;15.00;;;;;26.80;53.61;100737.19;5078106;28;51220;-48
2021/09/09 08:02:45;;;;;;;;;15.75;15.25;;;;;26.81;53.51;100738.03;5077775;28;51118;-49
2021/09/09 08:05:11;;;;;;;;;18.25;16.25;;;;;26.80;52.92;100737.19;5078171;28;51133;-51
2021/09/09 08:07:45;;;;;;;;;16.00;15.50;;;;;26.81;52.89;100741.66;5077319;28;51719;-51
2021/09/09 08:10:13;;;;;;;;;23.25;19.00;;;;;26.81;52.95;100736.09;5059594;28;51429;-52
2021/09/09 08:12:39;;;;;;;;;14.25;14.25;;;;;26.81;52.93;100721.38;5077670;28;51067;-51
2021/09/09 08:15:07;;;;;;;;;19.00;16.50;;;;;26.81;52.89;100719.41;5077752;28;51370;-53
2021/09/09 08:17:33;;;;;;;;;16.00;16.00;;;;;26.81;53.24;100733.31;5058831;28;51956;-52
2021/09/09 08:19:59;;;;;;;;;17.00;15.50;;;;;26.81;53.14;100741.66;5057006;28;51012;-56
2021/09/09 08:22:26;;;;;;;;;13.25;13.00;;;;;26.82;53.16;100750.81;5057412;28;51101;-49
2021/09/09 08:24:51;;;;;;;;;15.75;14.75;;;;;26.81;52.85;100746.38;5057586;28;50987;-53
2021/09/09 08:27:17;;;;;;;;;19.25;17.25;;;;;26.81;52.60;100749.16;5069217;28;51337;-47
2021/09/09 08:29:42;;;;;;;;;17.50;14.50;;;;;26.82;52.54;100748.03;5059185;28;51064;-49
2021/09/09 08:32:07;;;;;;;;;15.75;12.75;;;;;26.82;52.79;100748.03;5077383;28;50985;-52
2021/09/09 08:34:33;;;;;;;;;17.25;15.50;;;;;26.81;52.49;100747.22;5077710;28;51162;-53
2021/09/09 08:36:58;;;;;;;;;15.00;14.25;;;;;26.82;52.61;100753.59;5077357;28;50942;-51
2021/09/09 08:39:23;;;;;;;;;15.50;15.00;;;;;26.82;52.65;100754.44;5077246;28;50988;-49
2021/09/09 08:41:49;;;;;;;;;19.00;14.00;;;;;26.83;52.33;100755.28;5077302;28;50999;-52
2021/09/09 08:44:14;;;;;;;;;19.75;17.00;;;;;26.82;52.92;100754.44;5077499;28;51135;-52
2021/09/09 08:46:40;;;;;;;;;15.00;14.75;;;;;26.82;52.56;100765.56;5076554;28;51025;-51
2021/09/09 08:49:06;;;;;;;;;12.25;12.25;;;;;26.81;52.43;100750.00;5076735;28;51539;-53
2021/09/09 08:51:31;;;;;;;;;15.25;12.75;;;;;26.82;52.26;100759.16;5077421;28;51162;-53
2021/09/09 08:53:58;;;;;;;;;14.00;12.00;;;;;26.82;52.39;100768.34;5077381;28;51097;-51
2021/09/09 08:56:24;;;;;;;;;13.25;10.75;;;;;26.82;52.68;100771.13;5076290;28;52138;-50
2021/09/09 08:58:49;;;;;;;;;16.75;14.00;;;;;26.83;52.02;100766.38;5077030;28;51177;-54
2021/09/09 09:01:20;;;;;;;;;12.00;10.50;;;;;26.83;52.56;100769.16;5076786;28;51120;-53
2021/09/09 09:03:48;;;;;;;;;12.50;11.75;;;;;26.83;52.55;100772.78;5076488;27;50980;-50
2021/09/09 09:06:25;;;;;;;;;12.50;11.00;;;;;26.83;52.49;100770.00;5076635;28;51687;-50
2021/09/09 09:08:53;;;;;;;;;17.25;13.50;;;;;26.82;51.84;100773.91;5076915;28;51326;-53
2021/09/09 09:11:24;;;;;;;;;13.00;10.75;;;;;26.82;52.06;100768.34;5076686;28;51038;-53
2021/09/09 09:13:49;;;;;;;;;14.25;14.25;;;;;26.82;52.56;100770.28;5076822;28;51114;-52
2021/09/09 09:16:15;;;;;;;;;19.75;16.00;;;;;26.82;52.05;100768.34;5068579;28;51592;-52
2021/09/09 09:18:45;;;;;;;;;12.00;10.50;;;;;26.83;52.46;100772.78;5055871;28;51298;-50
2021/09/09 09:21:11;;;;;;;;;12.75;12.75;;;;;26.83;52.27;100777.50;5056174;28;51042;-52
2021/09/09 09:23:38;;;;;;;;;18.25;11.50;;;;;26.82;52.13;100771.13;5056402;28;51373;-52
2021/09/09 09:26:05;;;;;;;;;11.25;11.25;;;;;26.83;51.85;100769.16;5057964;28;51892;-51
2021/09/09 09:28:58;;;;;;;;;13.00;13.00;;;;;26.83;52.12;100769.16;5076504;28;51411;-52
2021/09/09 09:31:33;;;;;;;;;13.75;12.25;;;;;26.82;51.77;100771.13;5073786;28;51364;-52
2021/09/09 09:34:05;;;;;;;;;12.50;12.25;;;;;26.83;52.13;100766.38;5076409;28;51161;-54
2021/09/09 09:36:31;;;;;;;;;11.75;11.00;;;;;26.83;52.07;100772.78;5074483;28;52221;-52
2021/09/09 09:39:09;;;;;;;;;13.25;11.25;;;;;26.83;52.07;100771.94;5076133;28;51018;-52
2021/09/09 09:41:36;;;;;;;;;12.75;12.00;;;;;26.83;52.13;100777.50;5075878;28;51057;-53
2021/09/09 09:44:06;;;;;;;;;13.25;10.25;;;;;26.83;52.03;100780.28;5076248;28;50997;-50
2021/09/09 09:46:36;;;;;;;;;11.00;11.00;;;;;26.83;52.12;100775.56;5075407;28;51750;-48
2021/09/09 09:49:24;;;;;;;;;13.75;12.25;;;;;26.83;51.82;100775.56;5075723;28;51188;-50
2021/09/09 09:51:51;;;;;;;;;14.25;13.25;;;;;26.83;51.97;100775.56;5076335;28;51079;-46
2021/09/09 09:54:19;;;;;;;;;10.00;10.00;;;;;26.84;51.58;100779.19;5076341;28;51242;-50
2021/09/09 09:56:46;;;;;;;;;10.25;9.50;;;;;26.83;51.83;100770.00;5075516;28;51997;-50
2021/09/09 09:59:12;;;;;;;;;13.50;13.50;;;;;26.84;51.49;100777.22;5057621;28;51266;-51
2021/09/09 10:01:37;;;;;;;;;11.50;8.75;;;;;26.84;51.47;100768.06;5076287;28;50928;-50
2021/09/09 10:04:08;;;;;;;;;11.00;10.25;;;;;26.84;51.84;100768.06;5075965;28;51267;-50
2021/09/09 10:06:34;;;;;;;;;13.75;12.00;;;;;26.84;51.76;100774.47;5057392;28;52726;-51
2021/09/09 10:09:01;;;;;;;;;10.50;10.00;;;;;26.85;51.68;100773.34;5075813;28;51264;-50
2021/09/09 10:11:28;;;;;;;;;11.25;8.75;;;;;26.86;51.56;100772.25;5075514;28;51013;-50
2021/09/09 10:13:56;;;;;;;;;10.50;9.75;;;;;26.86;51.56;100771.41;5075737;28;51159;-49
2021/09/09 10:16:23;;;;;;;;;11.25;11.25;;;;;26.87;51.52;100773.91;5070276;28;51832;-50
2021/09/09 10:18:49;;;;;;;;;12.50;10.25;;;;;26.89;51.98;100768.13;5055079;28;51335;-51
2021/09/09 10:21:44;;;;;;;;;12.50;11.50;;;;;26.90;51.89;100770.63;5055204;28;51015;-50
2021/09/09 10:24:34;;;;;;;;;13.00;11.25;;;;;26.90;51.92;100769.78;5055573;28;51377;-52
2021/09/09 10:27:40;;;;;;;;;11.75;9.75;;;;;26.92;51.50;100760.06;5064855;28;51681;-50
2021/09/09 10:30:15;;;;;;;;;11.25;10.00;;;;;26.93;51.79;100761.75;5044260;28;51179;-51
2021/09/09 10:32:52;;;;;;;;;9.25;9.25;;;;;26.95;51.74;100765.09;5075404;28;51078;-52
2021/09/09 10:35:18;;;;;;;;;11.00;9.50;;;;;26.96;51.75;100771.47;5075169;28;51266;-50
2021/09/09 10:37:46;;;;;;;;;11.50;10.00;;;;;26.96;51.74;100760.34;5074994;28;52248;-50
2021/09/09 10:40:34;;;;;;;;;12.50;11.00;;;;;26.97;51.88;100756.47;5074970;28;51078;-51
2021/09/09 10:43:05;;;;;;;;;11.75;11.00;;;;;26.97;51.29;100754.53;5074701;28;50984;-50
2021/09/09 10:46:10;;;;;;;;;11.75;10.50;;;;;26.99;51.54;100762.59;5074793;27;50971;-48
2021/09/09 10:48:36;;;;;;;;;11.00;10.00;;;;;26.98;51.00;100756.19;5071802;28;51937;-51
2021/09/09 10:51:14;;;;;;;;;11.50;11.25;;;;;27.00;51.18;100755.97;5075180;28;51089;-52
2021/09/09 10:53:53;;;;;;;;;10.00;8.00;;;;;27.02;51.38;100760.16;5074899;28;51090;-48
2021/09/09 10:56:41;;;;;;;;;9.50;9.00;;;;;27.02;51.01;100760.16;5074252;28;51383;-52
2021/09/09 10:59:24;;;;;;;;;8.75;8.25;;;;;27.03;51.60;100761.00;5074064;28;52083;-50
2021/09/09 11:01:50;;;;;;;;;10.00;9.50;;;;;27.04;51.20;100748.78;5074564;28;51361;-47
2021/09/09 11:04:30;;;;;;;;;13.00;10.25;;;;;27.06;50.98;100759.63;5074742;28;51247;-51
2021/09/09 11:06:57;;;;;;;;;10.00;9.50;;;;;27.06;50.90;100752.13;5074832;28;51338;-52
2021/09/09 11:09:23;;;;;;;;;9.75;9.00;;;;;27.07;50.90;100748.22;5073908;28;52085;-50